createdAt,value
2018-01-22T00:00:32.984Z,3.4
2018-01-22T00:01:34.470Z,3.3
2018-01-22T00:02:35.871Z,3.3
2018-01-22T00:03:37.264Z,3.4
2018-01-22T00:04:38.661Z,3.3
2018-01-22T00:05:40.058Z,3.2
2018-01-22T00:06:41.671Z,3.3
2018-01-22T00:07:43.076Z,3.2
2018-01-22T00:08:44.469Z,3.2
2018-01-22T00:09:45.994Z,3.3
2018-01-22T00:10:47.392Z,3.2
2018-01-22T00:11:48.784Z,3.3
2018-01-22T00:12:50.323Z,3.2
2018-01-22T00:13:51.721Z,3.3
2018-01-22T00:14:53.122Z,3.3
2018-01-22T00:15:54.633Z,3.3
2018-01-22T00:16:56.032Z,3.3
2018-01-22T00:17:57.429Z,3.3
2018-01-22T00:18:58.956Z,3.2
2018-01-22T00:20:00.356Z,3.2
2018-01-22T00:21:01.835Z,3.1
2018-01-22T00:22:03.236Z,3.2
2018-01-22T00:23:04.716Z,3.2
2018-01-22T00:24:06.118Z,3.2
2018-01-22T00:25:07.598Z,3.3
2018-01-22T00:26:08.994Z,3.2
2018-01-22T00:27:10.568Z,3.2
2018-01-22T00:28:11.969Z,3.2
2018-01-22T00:29:13.528Z,3.2
2018-01-22T00:30:15.007Z,3.2
2018-01-22T00:31:16.404Z,3.2
2018-01-22T00:32:17.802Z,3.3
2018-01-22T00:33:19.328Z,3.2
2018-01-22T00:34:20.723Z,3.1
2018-01-22T00:35:22.413Z,3.2
2018-01-22T00:36:23.808Z,3.2
2018-01-22T00:37:25.292Z,3.2
2018-01-22T00:38:26.691Z,3.2
2018-01-22T00:39:28.088Z,3.1
2018-01-22T00:40:30.421Z,3.2
2018-01-22T00:41:31.821Z,3.1
2018-01-22T00:42:33.213Z,3.2
2018-01-22T00:43:34.756Z,3.3
2018-01-22T00:44:36.158Z,3.2
2018-01-22T00:45:37.552Z,3.3
2018-01-22T00:46:39.076Z,3.2
2018-01-22T00:47:40.473Z,3.2
2018-01-22T00:48:41.872Z,3.2
2018-01-22T00:49:43.396Z,3.2
2018-01-22T00:50:44.796Z,3.1
2018-01-22T00:51:46.280Z,3.2
2018-01-22T00:52:47.676Z,3.3
2018-01-22T00:53:49.076Z,3.3
2018-01-22T00:54:50.596Z,3.2
2018-01-22T00:55:51.996Z,3.2
2018-01-22T00:56:53.397Z,3.2
2018-01-22T00:57:54.918Z,3.2
2018-01-22T00:58:56.322Z,3.2
2018-01-22T00:59:57.727Z,3.1
2018-01-22T01:00:59.240Z,3.2
2018-01-22T01:02:00.643Z,3.1
2018-01-22T01:03:02.120Z,3.2
2018-01-22T01:04:03.521Z,3.1
2018-01-22T01:05:05.008Z,3.1
2018-01-22T01:06:06.397Z,3.2
2018-01-22T01:07:07.886Z,3.2
2018-01-22T01:08:09.659Z,3.2
2018-01-22T01:09:11.173Z,3.2
2018-01-22T01:10:12.569Z,3.1
2018-01-22T01:11:14.055Z,3.1
2018-01-22T01:12:15.459Z,3.2
2018-01-22T01:13:16.934Z,3.1
2018-01-22T01:14:18.338Z,3.1
2018-01-22T01:15:19.815Z,3.1
2018-01-22T01:16:21.210Z,3.2
2018-01-22T01:17:22.694Z,3.1
2018-01-22T01:18:24.093Z,3.1
2018-01-22T01:19:25.490Z,3.0
2018-01-22T01:20:27.394Z,3.1
2018-01-22T01:21:28.789Z,3.1
2018-01-22T01:22:30.191Z,3.1
2018-01-22T01:23:31.749Z,3.1
2018-01-22T01:24:33.153Z,3.0
2018-01-22T01:25:34.544Z,3.1
2018-01-22T01:26:36.071Z,3.0
2018-01-22T01:27:37.478Z,3.1
2018-01-22T01:28:38.878Z,3.1
2018-01-22T01:29:40.392Z,3.1
2018-01-22T01:30:41.790Z,3.1
2018-01-22T01:31:43.187Z,3.1
2018-01-22T01:32:44.712Z,3.1
2018-01-22T01:33:46.117Z,3.1
2018-01-22T01:34:47.544Z,3.1
2018-01-22T01:35:49.036Z,3.0
2018-01-22T01:36:50.432Z,3.1
2018-01-22T01:37:51.915Z,3.2
2018-01-22T01:38:53.311Z,3.1
2018-01-22T01:39:54.795Z,3.1
2018-01-22T01:40:56.194Z,3.1
2018-01-22T01:41:57.675Z,3.2
2018-01-22T01:42:59.073Z,3.1
2018-01-22T01:44:00.555Z,3.1
2018-01-22T01:45:01.954Z,3.1
2018-01-22T01:46:03.437Z,3.1
2018-01-22T01:47:04.835Z,3.1
2018-01-22T01:48:06.319Z,3.2
2018-01-22T01:49:07.717Z,3.1
2018-01-22T01:50:09.198Z,3.1
2018-01-22T01:51:10.594Z,3.1
2018-01-22T01:52:12.079Z,3.2
2018-01-22T01:53:13.476Z,3.1
2018-01-22T01:54:14.958Z,3.1
2018-01-22T01:55:16.360Z,3.1
2018-01-22T01:56:17.838Z,3.2
2018-01-22T01:57:19.240Z,3.1
2018-01-22T01:58:20.721Z,3.1
2018-01-22T01:59:22.116Z,3.1
2018-01-22T02:00:23.602Z,3.2
2018-01-22T02:01:25.410Z,3.2
2018-01-22T02:02:26.892Z,3.1
2018-01-22T02:03:28.291Z,3.1
2018-01-22T02:04:29.774Z,3.2
2018-01-22T02:05:31.171Z,3.2
2018-01-22T02:06:32.654Z,3.1
2018-01-22T02:07:34.054Z,3.2
2018-01-22T02:08:35.534Z,3.1
2018-01-22T02:09:36.933Z,3.1
2018-01-22T02:10:38.415Z,3.1
2018-01-22T02:11:39.814Z,3.1
2018-01-22T02:12:41.297Z,3.2
2018-01-22T02:13:42.695Z,3.1
2018-01-22T02:14:44.177Z,3.1
2018-01-22T02:15:45.578Z,3.1
2018-01-22T02:16:47.056Z,3.1
2018-01-22T02:17:48.455Z,3.1
2018-01-22T02:18:49.960Z,3.1
2018-01-22T02:19:51.360Z,3.2
2018-01-22T02:20:52.758Z,3.2
2018-01-22T02:21:54.259Z,3.2
2018-01-22T02:22:55.657Z,3.2
2018-01-22T02:23:57.057Z,3.2
2018-01-22T02:24:58.587Z,3.2
2018-01-22T02:25:59.988Z,3.2
2018-01-22T02:27:01.382Z,3.2
2018-01-22T02:28:02.903Z,3.2
2018-01-22T02:29:04.397Z,3.2
2018-01-22T02:30:05.788Z,3.2
2018-01-22T02:31:07.427Z,3.3
2018-01-22T02:32:08.825Z,3.2
2018-01-22T02:33:10.309Z,3.2
2018-01-22T02:34:11.704Z,3.1
2018-01-22T02:35:13.103Z,3.2
2018-01-22T02:36:14.631Z,3.2
2018-01-22T02:37:16.026Z,3.2
2018-01-22T02:38:17.428Z,3.2
2018-01-22T02:39:18.952Z,3.2
2018-01-22T02:40:20.353Z,3.3
2018-01-22T02:41:21.751Z,3.2
2018-01-22T02:42:23.268Z,3.3
2018-01-22T02:43:24.670Z,3.3
2018-01-22T02:44:26.067Z,3.3
2018-01-22T02:45:27.590Z,3.3
2018-01-22T02:46:28.993Z,3.3
2018-01-22T02:47:30.473Z,3.3
2018-01-22T02:48:31.872Z,3.2
2018-01-22T02:49:33.351Z,3.2
2018-01-22T02:50:34.756Z,3.3
2018-01-22T02:51:36.239Z,3.3
2018-01-22T02:52:37.633Z,3.3
2018-01-22T02:53:39.038Z,3.3
2018-01-22T02:54:40.557Z,3.3
2018-01-22T02:55:41.952Z,3.3
2018-01-22T02:56:43.434Z,3.3
2018-01-22T02:57:44.832Z,3.3
2018-01-22T02:58:46.318Z,3.3
2018-01-22T02:59:47.717Z,3.3
2018-01-22T03:00:49.201Z,3.3
2018-01-22T03:01:50.600Z,3.4
2018-01-22T03:02:52.080Z,3.3
2018-01-22T03:03:53.476Z,3.3
2018-01-22T03:04:54.961Z,3.3
2018-01-22T03:05:56.362Z,3.4
2018-01-22T03:06:57.842Z,3.3
2018-01-22T03:07:59.241Z,3.4
2018-01-22T03:09:00.722Z,3.4
2018-01-22T03:10:02.118Z,3.2
2018-01-22T03:11:03.518Z,3.4
2018-01-22T03:12:05.043Z,3.4
2018-01-22T03:13:06.440Z,3.4
2018-01-22T03:14:07.839Z,3.3
2018-01-22T03:15:09.363Z,3.4
2018-01-22T03:16:10.767Z,3.4
2018-01-22T03:17:12.245Z,3.4
2018-01-22T03:18:13.644Z,3.5
2018-01-22T03:19:15.125Z,3.4
2018-01-22T03:20:16.526Z,3.4
2018-01-22T03:21:17.927Z,3.4
2018-01-22T03:22:19.744Z,3.4
2018-01-22T03:23:21.146Z,3.5
2018-01-22T03:24:22.542Z,3.5
2018-01-22T03:25:23.973Z,3.5
2018-01-22T03:26:25.371Z,3.5
2018-01-22T03:27:26.853Z,3.5
2018-01-22T03:28:28.253Z,3.5
2018-01-22T03:29:29.734Z,3.5
2018-01-22T03:30:31.134Z,3.5
2018-01-22T03:31:32.617Z,3.5
2018-01-22T03:32:34.041Z,3.5
2018-01-22T03:33:35.495Z,3.5
2018-01-22T03:34:36.893Z,3.5
2018-01-22T03:35:38.290Z,3.5
2018-01-22T03:36:39.817Z,3.5
2018-01-22T03:37:41.218Z,3.6
2018-01-22T03:38:42.617Z,3.5
2018-01-22T03:39:44.138Z,3.5
2018-01-22T03:40:45.533Z,3.5
2018-01-22T03:41:46.934Z,3.5
2018-01-22T03:42:48.465Z,3.5
2018-01-22T03:43:49.871Z,3.5
2018-01-22T03:44:51.270Z,3.6
2018-01-22T03:45:52.781Z,3.6
2018-01-22T03:46:54.178Z,3.6
2018-01-22T03:47:55.571Z,3.6
2018-01-22T03:48:57.101Z,3.6
2018-01-22T03:49:58.501Z,3.7
2018-01-22T03:50:59.902Z,3.6
2018-01-22T03:52:01.423Z,3.6
2018-01-22T03:53:02.819Z,3.7
2018-01-22T03:54:04.216Z,3.6
2018-01-22T03:55:05.845Z,3.6
2018-01-22T03:56:07.245Z,3.7
2018-01-22T03:57:08.645Z,3.6
2018-01-22T03:58:10.167Z,3.6
2018-01-22T03:59:11.573Z,3.6
2018-01-22T04:00:13.350Z,3.6
2018-01-22T04:01:14.901Z,3.7
2018-01-22T04:02:16.300Z,3.7
2018-01-22T04:03:17.697Z,3.7
2018-01-22T04:04:19.242Z,3.7
2018-01-22T04:05:20.641Z,3.7
2018-01-22T04:06:22.038Z,3.7
2018-01-22T04:07:23.745Z,3.7
2018-01-22T04:08:25.146Z,3.7
2018-01-22T04:09:26.831Z,3.7
2018-01-22T04:10:28.230Z,3.7
2018-01-22T04:11:29.671Z,3.8
2018-01-22T04:12:31.152Z,3.7
2018-01-22T04:13:32.555Z,3.7
2018-01-22T04:14:33.948Z,3.7
2018-01-22T04:15:35.476Z,3.8
2018-01-22T04:16:36.899Z,3.7
2018-01-22T04:17:38.559Z,3.7
2018-01-22T04:18:39.958Z,3.8
2018-01-22T04:19:41.646Z,3.8
2018-01-22T04:20:43.047Z,3.8
2018-01-22T04:21:44.445Z,3.8
2018-01-22T04:22:45.966Z,3.8
2018-01-22T04:23:47.365Z,3.8
2018-01-22T04:24:48.762Z,3.8
2018-01-22T04:25:50.285Z,3.8
2018-01-22T04:26:51.687Z,3.8
2018-01-22T04:27:53.089Z,3.8
2018-01-22T04:28:55.400Z,3.8
2018-01-22T04:29:56.797Z,3.8
2018-01-22T04:30:58.197Z,3.8
2018-01-22T04:31:59.745Z,3.9
2018-01-22T04:33:01.146Z,3.8
2018-01-22T04:34:02.545Z,3.9
2018-01-22T04:35:04.067Z,3.9
2018-01-22T04:36:05.469Z,3.8
2018-01-22T04:37:06.860Z,3.9
2018-01-22T04:38:08.392Z,3.8
2018-01-22T04:39:09.788Z,3.8
2018-01-22T04:40:11.475Z,3.9
2018-01-22T04:41:12.873Z,3.9
2018-01-22T04:42:14.566Z,3.9
2018-01-22T04:43:15.963Z,3.9
2018-01-22T04:44:17.660Z,3.9
2018-01-22T04:45:19.060Z,3.9
2018-01-22T04:46:20.731Z,3.9
2018-01-22T04:47:22.151Z,3.9
2018-01-22T04:48:23.817Z,3.9
2018-01-22T04:49:25.217Z,4.0
2018-01-22T04:50:26.906Z,4.0
2018-01-22T04:51:28.309Z,3.9
2018-01-22T04:52:29.989Z,3.9
2018-01-22T04:53:31.387Z,3.9
2018-01-22T04:54:33.083Z,3.9
2018-01-22T04:55:34.497Z,3.9
2018-01-22T04:56:35.886Z,4.0
2018-01-22T04:57:37.400Z,3.9
2018-01-22T04:58:38.794Z,3.9
2018-01-22T04:59:40.202Z,4.0
2018-01-22T05:00:42.102Z,4.0
2018-01-22T05:01:43.508Z,3.9
2018-01-22T05:02:45.212Z,4.0
2018-01-22T05:03:46.614Z,3.9
2018-01-22T05:04:48.302Z,3.9
2018-01-22T05:05:49.700Z,4.0
2018-01-22T05:06:51.480Z,3.9
2018-01-22T05:07:53.042Z,3.9
2018-01-22T05:08:54.470Z,4.0
2018-01-22T05:09:55.868Z,3.9
2018-01-22T05:10:57.560Z,4.0
2018-01-22T05:11:58.953Z,4.0
2018-01-22T05:13:00.355Z,4.0
2018-01-22T05:14:01.876Z,4.0
2018-01-22T05:15:03.274Z,4.0
2018-01-22T05:16:04.671Z,4.0
2018-01-22T05:17:06.198Z,4.0
2018-01-22T05:18:07.597Z,4.1
2018-01-22T05:19:08.994Z,4.0
2018-01-22T05:20:10.524Z,4.1
2018-01-22T05:21:11.911Z,4.1
2018-01-22T05:22:13.306Z,4.0
2018-01-22T05:23:14.846Z,4.1
2018-01-22T05:24:16.239Z,4.1
2018-01-22T05:25:17.929Z,4.1
2018-01-22T05:26:19.324Z,4.0
2018-01-22T05:27:21.013Z,4.0
2018-01-22T05:28:36.761Z,4.1
2018-01-22T05:29:38.322Z,4.1
2018-01-22T05:30:40.020Z,4.0
2018-01-22T05:31:44.041Z,4.0
2018-01-22T05:32:45.432Z,4.0
2018-01-22T05:33:47.066Z,4.1
2018-01-22T05:34:48.466Z,4.0
2018-01-22T05:35:50.152Z,4.0
2018-01-22T05:36:51.553Z,4.2
2018-01-22T05:37:52.950Z,4.1
2018-01-22T05:38:54.475Z,4.2
2018-01-22T05:39:55.868Z,4.1
2018-01-22T05:40:58.088Z,4.2
2018-01-22T05:41:59.613Z,4.1
2018-01-22T05:43:01.007Z,4.1
2018-01-22T05:44:02.697Z,4.1
2018-01-22T05:45:04.133Z,4.2
2018-01-22T05:46:05.790Z,4.1
2018-01-22T05:47:07.179Z,4.2
2018-01-22T05:48:08.578Z,4.2
2018-01-22T05:49:10.101Z,4.2
2018-01-22T05:50:11.495Z,4.1
2018-01-22T05:51:12.892Z,4.2
2018-01-22T05:52:14.427Z,4.3
2018-01-22T05:53:15.822Z,4.3
2018-01-22T05:54:17.507Z,4.2
2018-01-22T05:55:18.898Z,4.3
2018-01-22T05:56:20.593Z,4.2
2018-01-22T05:57:21.992Z,4.2
2018-01-22T05:58:23.389Z,4.3
2018-01-22T05:59:24.919Z,4.3
2018-01-22T06:00:26.312Z,4.3
2018-01-22T06:01:27.713Z,4.3
2018-01-22T06:02:29.238Z,4.3
2018-01-22T06:03:30.629Z,4.3
2018-01-22T06:04:32.323Z,4.3
2018-01-22T06:05:33.717Z,4.3
2018-01-22T06:06:35.413Z,4.3
2018-01-22T06:07:36.807Z,4.3
2018-01-22T06:08:38.494Z,4.4
2018-01-22T06:09:40.276Z,4.3
2018-01-22T06:10:41.786Z,4.3
2018-01-22T06:11:43.184Z,4.3
2018-01-22T06:12:44.586Z,4.4
2018-01-22T06:13:46.105Z,4.3
2018-01-22T06:14:47.503Z,4.4
2018-01-22T06:15:48.906Z,4.4
2018-01-22T06:16:50.429Z,4.4
2018-01-22T06:17:51.824Z,4.4
2018-01-22T06:18:53.513Z,4.3
2018-01-22T06:19:55.028Z,4.3
2018-01-22T06:21:02.763Z,4.3
2018-01-22T06:22:03.816Z,4.3
2018-01-22T06:23:06.015Z,4.4
2018-01-22T06:24:10.134Z,4.4
2018-01-22T06:25:11.970Z,4.4
2018-01-22T06:26:13.665Z,4.4
2018-01-22T06:27:15.275Z,4.4
2018-01-22T06:28:16.669Z,4.4
2018-01-22T06:29:19.072Z,4.4
2018-01-22T06:30:20.996Z,4.4
2018-01-22T06:31:23.316Z,4.4
2018-01-22T06:32:25.374Z,4.4
2018-01-22T06:33:27.479Z,4.4
2018-01-22T06:34:29.350Z,4.4
2018-01-22T06:35:31.300Z,4.4
2018-01-22T06:36:33.331Z,4.5
2018-01-22T06:37:35.490Z,4.5
2018-01-22T06:38:37.533Z,4.5
2018-01-22T06:39:39.112Z,4.5
2018-01-22T06:40:40.512Z,4.5
2018-01-22T06:41:42.973Z,4.4
2018-01-22T06:42:45.173Z,4.5
2018-01-22T06:43:46.716Z,4.5
2018-01-22T06:44:48.677Z,4.5
2018-01-22T06:45:51.262Z,4.4
2018-01-22T06:46:53.204Z,4.5
2018-01-22T06:47:55.419Z,4.4
2018-01-22T06:48:57.324Z,4.5
2018-01-22T06:49:59.457Z,4.4
2018-01-22T06:51:01.041Z,4.5
2018-01-22T06:52:03.597Z,4.4
2018-01-22T06:53:04.954Z,4.4
2018-01-22T06:54:06.516Z,4.5
2018-01-22T06:55:08.663Z,4.5
2018-01-22T06:56:10.597Z,4.5
2018-01-22T06:57:12.442Z,4.6
2018-01-22T06:58:14.550Z,4.5
2018-01-22T06:59:16.596Z,4.5
2018-01-22T07:00:17.933Z,4.5
2018-01-22T07:01:19.519Z,4.6
2018-01-22T07:02:20.923Z,4.5
2018-01-22T07:03:22.318Z,4.6
2018-01-22T07:04:23.919Z,4.5
2018-01-22T07:05:25.318Z,4.5
2018-01-22T07:06:26.925Z,4.5
2018-01-22T07:07:28.324Z,4.5
2018-01-22T07:08:29.728Z,4.5
2018-01-22T07:09:31.130Z,4.6
2018-01-22T07:10:32.544Z,4.6
2018-01-22T07:11:33.944Z,4.7
2018-01-22T07:12:35.345Z,4.7
2018-01-22T07:13:36.749Z,4.7
2018-01-22T07:14:38.150Z,4.7
2018-01-22T07:15:39.693Z,4.6
2018-01-22T07:16:41.116Z,4.7
2018-01-22T07:17:42.569Z,4.7
2018-01-22T07:18:43.968Z,4.6
2018-01-22T07:19:45.374Z,4.7
2018-01-22T07:20:46.773Z,4.6
2018-01-22T07:21:48.331Z,4.7
2018-01-22T07:22:49.731Z,4.8
2018-01-22T07:23:51.212Z,4.8
2018-01-22T07:24:52.611Z,4.7
2018-01-22T07:25:54.092Z,4.8
2018-01-22T07:26:55.492Z,4.8
2018-01-22T07:27:56.892Z,4.7
2018-01-22T07:28:58.416Z,4.8
2018-01-22T07:29:59.834Z,4.8
2018-01-22T07:31:01.226Z,4.8
2018-01-22T07:32:02.737Z,4.8
2018-01-22T07:33:04.142Z,4.8
2018-01-22T07:34:05.542Z,4.8
2018-01-22T07:35:07.062Z,4.8
2018-01-22T07:36:08.455Z,4.8
2018-01-22T07:37:09.852Z,4.8
2018-01-22T07:38:11.394Z,4.8
2018-01-22T07:39:12.780Z,4.7
2018-01-22T07:40:14.347Z,4.8
2018-01-22T07:41:15.745Z,4.8
2018-01-22T07:42:17.348Z,4.8
2018-01-22T07:43:18.746Z,4.8
2018-01-22T07:44:20.153Z,4.8
2018-01-22T07:45:21.668Z,4.9
2018-01-22T07:46:23.070Z,4.9
2018-01-22T07:47:24.470Z,4.9
2018-01-22T07:48:25.987Z,4.9
2018-01-22T07:49:27.377Z,5.0
2018-01-22T07:50:28.870Z,4.9
2018-01-22T07:51:30.267Z,5.0
2018-01-22T07:52:31.749Z,5.0
2018-01-22T07:53:33.152Z,5.0
2018-01-22T07:54:34.632Z,5.0
2018-01-22T07:55:36.035Z,5.0
2018-01-22T07:56:37.511Z,5.0
2018-01-22T07:57:38.915Z,5.0
2018-01-22T07:58:40.314Z,5.1
2018-01-22T07:59:41.837Z,5.1
2018-01-22T08:00:43.234Z,5.1
2018-01-22T08:01:44.636Z,5.2
2018-01-22T08:02:46.160Z,5.2
2018-01-22T08:03:47.561Z,5.3
2018-01-22T08:04:48.961Z,5.2
2018-01-22T08:05:50.481Z,5.2
2018-01-22T08:06:51.880Z,5.2
2018-01-22T08:07:53.280Z,5.3
2018-01-22T08:08:54.802Z,5.3
2018-01-22T08:09:56.202Z,5.3
2018-01-22T08:10:57.606Z,5.4
2018-01-22T08:11:59.125Z,5.3
2018-01-22T08:13:00.525Z,5.3
2018-01-22T08:14:01.927Z,5.4
2018-01-22T08:15:03.447Z,5.4
2018-01-22T08:16:04.850Z,5.6
2018-01-22T08:17:06.378Z,5.5
2018-01-22T08:18:07.729Z,5.6
2018-01-22T08:19:09.164Z,5.5
2018-01-22T08:20:10.671Z,5.5
2018-01-22T08:21:12.050Z,5.6
2018-01-22T08:22:13.460Z,5.6
2018-01-22T08:23:14.970Z,5.6
2018-01-22T08:24:16.371Z,5.6
2018-01-22T08:25:17.777Z,5.7
2018-01-22T08:26:19.291Z,5.7
2018-01-22T08:27:20.701Z,5.8
2018-01-22T08:28:22.054Z,5.8
2018-01-22T08:29:23.621Z,5.8
2018-01-22T08:30:25.023Z,5.8
2018-01-22T08:31:26.426Z,5.8
2018-01-22T08:32:27.936Z,5.8
2018-01-22T08:33:29.335Z,5.8
2018-01-22T08:34:30.739Z,5.9
2018-01-22T08:35:32.258Z,5.9
2018-01-22T08:36:33.672Z,5.9
2018-01-22T08:37:35.076Z,6.0
2018-01-22T08:38:36.999Z,5.9
2018-01-22T08:39:38.402Z,6.0
2018-01-22T08:40:39.870Z,6.0
2018-01-22T08:41:41.270Z,6.0
2018-01-22T08:42:42.752Z,6.0
2018-01-22T08:43:44.151Z,6.0
2018-01-22T08:44:46.655Z,6.0
2018-01-22T08:45:48.056Z,6.1
2018-01-22T08:46:49.942Z,6.1
2018-01-22T08:47:51.329Z,6.1
2018-01-22T08:48:52.828Z,6.1
2018-01-22T08:49:54.229Z,6.1
2018-01-22T08:50:55.709Z,6.1
2018-01-22T08:51:57.112Z,6.1
2018-01-22T08:52:58.592Z,6.1
2018-01-22T08:53:59.994Z,6.1
2018-01-22T08:55:01.473Z,6.1
2018-01-22T08:56:02.875Z,6.2
2018-01-22T08:57:04.352Z,6.1
2018-01-22T08:58:05.753Z,6.1
2018-01-22T08:59:07.156Z,6.1
2018-01-22T09:00:08.674Z,6.1
2018-01-22T09:01:10.078Z,6.1
2018-01-22T09:02:11.480Z,6.1
2018-01-22T09:03:12.997Z,6.2
2018-01-22T09:04:14.410Z,6.2
2018-01-22T09:05:15.810Z,6.2
2018-01-22T09:06:17.321Z,6.3
2018-01-22T09:07:18.726Z,6.4
2018-01-22T09:08:20.198Z,6.4
2018-01-22T09:09:21.598Z,6.4
2018-01-22T09:10:23.009Z,6.6
2018-01-22T09:11:24.418Z,6.6
2018-01-22T09:12:25.819Z,6.5
2018-01-22T09:13:27.218Z,6.6
2018-01-22T09:14:28.628Z,6.6
2018-01-22T09:15:30.028Z,6.7
2018-01-22T09:16:31.518Z,6.7
2018-01-22T09:17:32.917Z,6.7
2018-01-22T09:18:34.319Z,6.7
2018-01-22T09:19:35.841Z,6.7
2018-01-22T09:20:37.244Z,6.6
2018-01-22T09:21:38.721Z,6.8
2018-01-22T09:22:40.125Z,6.7
2018-01-22T09:23:41.602Z,6.7
2018-01-22T09:24:43.004Z,6.7
2018-01-22T09:25:44.484Z,6.8
2018-01-22T09:26:45.886Z,6.7
2018-01-22T09:27:47.368Z,6.7
2018-01-22T09:28:48.768Z,6.8
2018-01-22T09:29:50.170Z,6.8
2018-01-22T09:30:51.686Z,6.9
2018-01-22T09:31:53.090Z,6.9
2018-01-22T09:32:54.491Z,6.9
2018-01-22T09:33:56.013Z,6.9
2018-01-22T09:34:57.416Z,6.9
2018-01-22T09:35:58.820Z,6.9
2018-01-22T09:37:00.330Z,6.9
2018-01-22T09:38:01.731Z,6.9
2018-01-22T09:39:03.211Z,7.0
2018-01-22T09:40:04.611Z,6.9
2018-01-22T09:41:06.015Z,7.0
2018-01-22T09:42:07.533Z,7.2
2018-01-22T09:43:08.936Z,7.0
2018-01-22T09:44:10.339Z,7.0
2018-01-22T09:45:11.855Z,7.1
2018-01-22T09:46:13.265Z,7.1
2018-01-22T09:47:14.735Z,7.1
2018-01-22T09:48:16.142Z,7.2
2018-01-22T09:49:17.617Z,7.2
2018-01-22T09:50:19.023Z,7.3
2018-01-22T09:51:20.499Z,7.3
2018-01-22T09:52:21.900Z,7.5
2018-01-22T09:53:23.379Z,7.5
2018-01-22T09:54:24.781Z,7.4
2018-01-22T09:55:26.258Z,7.4
2018-01-22T09:56:27.701Z,7.4
2018-01-22T09:57:29.103Z,7.2
2018-01-22T09:58:30.513Z,7.3
2018-01-22T09:59:32.022Z,7.3
2018-01-22T10:00:33.426Z,7.2
2018-01-22T10:01:34.903Z,7.2
2018-01-22T10:02:36.307Z,7.2
2018-01-22T10:03:37.787Z,7.2
2018-01-22T10:04:39.196Z,7.1
2018-01-22T10:05:40.599Z,7.1
2018-01-22T10:06:42.110Z,7.2
2018-01-22T10:07:43.509Z,7.2
2018-01-22T10:08:44.913Z,7.2
2018-01-22T10:09:46.428Z,7.1
2018-01-22T10:10:47.840Z,7.2
2018-01-22T10:11:49.244Z,7.1
2018-01-22T10:12:50.748Z,7.2
2018-01-22T10:13:52.152Z,7.2
2018-01-22T10:14:53.555Z,7.2
2018-01-22T10:15:55.072Z,7.2
2018-01-22T10:16:56.479Z,7.2
2018-01-22T10:17:57.894Z,7.2
2018-01-22T10:18:59.393Z,7.2
2018-01-22T10:20:00.799Z,7.2
2018-01-22T10:21:02.201Z,7.2
2018-01-22T10:22:03.760Z,7.2
2018-01-22T10:23:05.170Z,7.1
2018-01-22T10:24:06.643Z,7.2
2018-01-22T10:25:08.046Z,7.2
2018-01-22T10:26:09.477Z,7.2
2018-01-22T10:27:10.882Z,7.2
2018-01-22T10:28:12.357Z,7.2
2018-01-22T10:29:13.813Z,7.3
2018-01-22T10:30:15.238Z,7.3
2018-01-22T10:31:16.642Z,7.2
2018-01-22T10:32:18.861Z,7.3
2018-01-22T10:33:20.378Z,7.3
2018-01-22T10:34:21.792Z,7.3
2018-01-22T10:35:23.190Z,7.4
2018-01-22T10:36:24.700Z,7.4
2018-01-22T10:37:26.105Z,7.4
2018-01-22T10:38:27.583Z,7.4
2018-01-22T10:39:28.986Z,7.4
2018-01-22T10:40:30.462Z,7.5
2018-01-22T10:41:31.871Z,7.5
2018-01-22T10:42:33.344Z,7.5
2018-01-22T10:43:34.745Z,7.4
2018-01-22T10:44:36.225Z,7.6
2018-01-22T10:45:37.627Z,7.4
2018-01-22T10:46:39.106Z,7.5
2018-01-22T10:47:40.512Z,7.5
2018-01-22T10:48:41.985Z,7.5
2018-01-22T10:49:43.391Z,7.6
2018-01-22T10:50:44.869Z,7.7
2018-01-22T10:51:46.654Z,7.7
2018-01-22T10:52:48.159Z,7.7
2018-01-22T10:53:49.564Z,7.7
2018-01-22T10:54:51.040Z,7.7
2018-01-22T10:55:52.445Z,7.7
2018-01-22T10:56:53.848Z,7.8
2018-01-22T10:57:55.369Z,7.9
2018-01-22T10:58:56.774Z,7.9
2018-01-22T10:59:58.175Z,8.0
2018-01-22T11:00:59.690Z,7.9
2018-01-22T11:02:01.089Z,8.1
2018-01-22T11:03:02.500Z,8.2
2018-01-22T11:04:03.900Z,8.3
2018-01-22T11:05:05.307Z,8.5
2018-01-22T11:06:06.886Z,8.5
2018-01-22T11:07:08.294Z,8.5
2018-01-22T11:08:09.776Z,8.5
2018-01-22T11:09:11.174Z,8.6
2018-01-22T11:10:12.650Z,8.6
2018-01-22T11:11:14.054Z,8.8
2018-01-22T11:12:15.532Z,8.9
2018-01-22T11:13:16.939Z,9.1
2018-01-22T11:14:18.412Z,9.3
2018-01-22T11:15:19.819Z,9.5
2018-01-22T11:16:21.227Z,9.6
2018-01-22T11:17:22.734Z,9.6
2018-01-22T11:18:24.137Z,9.6
2018-01-22T11:19:25.543Z,9.6
2018-01-22T11:20:27.055Z,9.6
2018-01-22T11:21:28.463Z,9.6
2018-01-22T11:22:29.871Z,9.7
2018-01-22T11:23:31.378Z,9.7
2018-01-22T11:24:32.787Z,9.7
2018-01-22T11:25:34.239Z,9.7
2018-01-22T11:26:35.699Z,9.6
2018-01-22T11:27:37.105Z,9.6
2018-01-22T11:28:38.578Z,9.5
2018-01-22T11:29:39.983Z,9.5
2018-01-22T11:30:41.460Z,9.3
2018-01-22T11:31:42.868Z,9.3
2018-01-22T11:32:44.344Z,9.3
2018-01-22T11:33:46.124Z,9.3
2018-01-22T11:34:47.636Z,9.4
2018-01-22T11:35:49.039Z,9.5
2018-01-22T11:36:50.531Z,9.5
2018-01-22T11:37:51.922Z,9.4
2018-01-22T11:38:53.398Z,9.6
2018-01-22T11:39:54.802Z,9.8
2018-01-22T11:40:56.276Z,9.8
2018-01-22T11:41:57.683Z,9.8
2018-01-22T11:42:59.158Z,9.8
2018-01-22T11:44:00.564Z,9.8
2018-01-22T11:45:02.040Z,9.9
2018-01-22T11:46:03.449Z,9.9
2018-01-22T11:47:04.932Z,10.1
2018-01-22T11:48:06.336Z,9.9
2018-01-22T11:49:07.803Z,10.0
2018-01-22T11:50:09.598Z,10.2
2018-01-22T11:51:11.092Z,10.2
2018-01-22T11:52:12.500Z,10.5
2018-01-22T11:53:13.909Z,10.6
2018-01-22T11:54:15.414Z,10.6
2018-01-22T11:55:16.819Z,10.6
2018-01-22T11:56:18.229Z,10.6
2018-01-22T11:57:20.018Z,10.6
2018-01-22T11:58:21.425Z,10.4
2018-01-22T11:59:23.026Z,10.3
2018-01-22T12:00:24.817Z,10.0
2018-01-22T12:01:26.317Z,10.0
2018-01-22T12:02:27.721Z,9.9
2018-01-22T12:03:29.509Z,9.7
2018-01-22T12:04:31.047Z,9.7
2018-01-22T12:05:32.455Z,9.6
2018-01-22T12:06:33.861Z,9.6
2018-01-22T12:07:35.370Z,9.7
2018-01-22T12:08:36.775Z,9.6
2018-01-22T12:09:38.254Z,9.5
2018-01-22T12:10:39.661Z,9.6
2018-01-22T12:11:41.131Z,9.6
2018-01-22T12:12:42.537Z,9.6
2018-01-22T12:13:44.011Z,9.6
2018-01-22T12:14:45.821Z,9.5
2018-01-22T12:15:47.302Z,9.5
2018-01-22T12:16:49.094Z,9.5
2018-01-22T12:17:50.513Z,9.6
2018-01-22T12:18:52.034Z,9.5
2018-01-22T12:19:53.441Z,9.8
2018-01-22T12:20:54.854Z,9.8
2018-01-22T12:21:56.361Z,9.9
2018-01-22T12:22:57.769Z,10.0
2018-01-22T12:23:59.238Z,9.9
2018-01-22T12:25:00.645Z,9.9
2018-01-22T12:26:02.116Z,9.8
2018-01-22T12:27:03.527Z,9.8
2018-01-22T12:28:04.933Z,9.8
2018-01-22T12:29:06.438Z,9.6
2018-01-22T12:30:07.850Z,9.6
2018-01-22T12:31:09.251Z,9.5
2018-01-22T12:32:10.761Z,9.4
2018-01-22T12:33:12.165Z,9.4
2018-01-22T12:34:13.642Z,9.4
2018-01-22T12:35:15.052Z,9.4
2018-01-22T12:36:16.524Z,9.4
2018-01-22T12:37:17.929Z,9.4
2018-01-22T12:38:19.403Z,9.5
2018-01-22T12:39:20.808Z,9.4
2018-01-22T12:40:22.669Z,9.3
2018-01-22T12:41:24.072Z,9.5
2018-01-22T12:42:25.978Z,9.6
2018-01-22T12:43:27.395Z,9.6
2018-01-22T12:44:28.865Z,9.4
2018-01-22T12:45:30.271Z,9.6
2018-01-22T12:46:31.748Z,9.7
2018-01-22T12:47:33.152Z,9.7
2018-01-22T12:48:35.008Z,9.6
2018-01-22T12:49:36.415Z,9.6
2018-01-22T12:50:37.921Z,9.6
2018-01-22T12:51:39.325Z,9.6
2018-01-22T12:52:40.786Z,9.6
2018-01-22T12:53:42.239Z,9.6
2018-01-22T12:54:43.650Z,9.6
2018-01-22T12:55:45.058Z,9.8
2018-01-22T12:56:47.586Z,9.9
2018-01-22T12:57:48.993Z,9.9
2018-01-22T12:58:51.494Z,10.0
2018-01-22T12:59:52.898Z,10.0
2018-01-22T13:00:54.372Z,9.9
2018-01-22T13:01:55.778Z,9.8
2018-01-22T13:02:57.284Z,9.8
2018-01-22T13:03:58.691Z,10.0
2018-01-22T13:05:00.159Z,9.9
2018-01-22T13:06:01.565Z,9.9
2018-01-22T13:07:03.041Z,10.0
2018-01-22T13:08:04.449Z,10.1
2018-01-22T13:09:05.921Z,10.2
2018-01-22T13:10:07.335Z,10.1
2018-01-22T13:11:08.800Z,10.2
2018-01-22T13:12:10.214Z,10.2
2018-01-22T13:13:11.680Z,10.2
2018-01-22T13:14:13.264Z,10.1
2018-01-22T13:15:14.768Z,10.1
2018-01-22T13:16:16.175Z,10.0
2018-01-22T13:17:17.649Z,10.0
2018-01-22T13:18:19.072Z,10.1
2018-01-22T13:19:20.529Z,10.0
2018-01-22T13:20:21.938Z,10.2
2018-01-22T13:21:23.413Z,10.3
2018-01-22T13:22:24.819Z,10.4
2018-01-22T13:23:26.289Z,10.3
2018-01-22T13:24:27.699Z,10.3
2018-01-22T13:25:30.195Z,10.4
2018-01-22T13:26:31.605Z,10.4
2018-01-22T13:27:33.077Z,10.4
2018-01-22T13:28:34.500Z,10.3
2018-01-22T13:29:35.907Z,10.3
2018-01-22T13:30:37.397Z,10.3
2018-01-22T13:31:38.808Z,10.4
2018-01-22T13:32:40.250Z,10.4
2018-01-22T13:33:41.711Z,10.4
2018-01-22T13:34:43.122Z,10.4
2018-01-22T13:35:44.582Z,10.4
2018-01-22T13:36:45.988Z,10.4
2018-01-22T13:37:47.463Z,10.3
2018-01-22T13:38:48.869Z,10.3
2018-01-22T13:39:50.340Z,10.3
2018-01-22T13:40:51.750Z,10.2
2018-01-22T13:41:53.225Z,10.1
2018-01-22T13:42:54.632Z,10.1
2018-01-22T13:43:56.106Z,10.1
2018-01-22T13:44:57.510Z,10.2
2018-01-22T13:45:58.988Z,10.1
2018-01-22T13:47:00.394Z,10.0
2018-01-22T13:48:01.868Z,10.1
2018-01-22T13:49:03.273Z,10.2
2018-01-22T13:50:04.747Z,10.1
2018-01-22T13:51:06.153Z,10.1
2018-01-22T13:52:07.632Z,10.1
2018-01-22T13:53:09.042Z,10.1
2018-01-22T13:54:10.509Z,10.1
2018-01-22T13:55:11.933Z,10.0
2018-01-22T13:56:13.396Z,10.0
2018-01-22T13:57:14.801Z,10.0
2018-01-22T13:58:16.275Z,9.9
2018-01-22T13:59:17.681Z,9.9
2018-01-22T14:00:19.154Z,10.0
2018-01-22T14:01:20.560Z,10.0
2018-01-22T14:02:22.036Z,10.0
2018-01-22T14:03:23.457Z,10.0
2018-01-22T14:04:24.890Z,9.9